createdAt,value
2018-12-21T00:00:54.752Z,10.20
2018-12-21T00:01:54.741Z,9.50
2018-12-21T00:02:54.732Z,9.90
2018-12-21T00:03:54.707Z,9.70
2018-12-21T00:04:54.721Z,9.90
2018-12-21T00:05:54.702Z,10.40
2018-12-21T00:06:54.680Z,9.50
2018-12-21T00:07:54.659Z,10.20
2018-12-21T00:08:54.660Z,9.90
2018-12-21T00:09:54.655Z,9.30
2018-12-21T00:10:54.663Z,10.40
2018-12-21T00:11:54.650Z,9.60
2018-12-21T00:12:54.658Z,9.60
2018-12-21T00:13:54.606Z,9.90
2018-12-21T00:14:54.587Z,10.00
2018-12-21T00:15:54.574Z,9.90
2018-12-21T00:16:54.579Z,9.60
2018-12-21T00:17:55.397Z,10.20
2018-12-21T00:18:54.607Z,9.70
2018-12-21T00:19:54.536Z,9.70
2018-12-21T00:20:54.617Z,8.90
2018-12-21T00:21:54.506Z,9.60
2018-12-21T00:22:54.499Z,9.60
2018-12-21T00:23:54.496Z,10.20
2018-12-21T00:24:54.488Z,9.20
2018-12-21T00:25:54.492Z,9.60
2018-12-21T00:26:54.450Z,9.30
2018-12-21T00:27:54.459Z,9.80
2018-12-21T00:28:54.443Z,9.20
2018-12-21T00:29:54.421Z,10.60
2018-12-21T00:30:54.492Z,9.80
2018-12-21T00:31:54.885Z,9.30
2018-12-21T00:32:54.573Z,9.70
2018-12-21T00:33:54.390Z,9.10
2018-12-21T00:34:54.375Z,9.70
2018-12-21T00:35:54.360Z,9.90
2018-12-21T00:36:54.351Z,9.30
2018-12-21T00:37:54.357Z,10.00
2018-12-21T00:38:54.979Z,9.30
2018-12-21T00:39:54.314Z,9.30
2018-12-21T00:40:54.324Z,9.70
2018-12-21T00:41:54.300Z,9.40
2018-12-21T00:42:54.275Z,9.80
2018-12-21T00:43:54.270Z,9.50
2018-12-21T00:44:54.254Z,9.90
2018-12-21T00:45:54.250Z,9.40
2018-12-21T00:46:54.285Z,11.10
2018-12-21T00:47:54.237Z,9.40
2018-12-21T00:48:54.230Z,9.40
2018-12-21T00:49:54.201Z,10.30
2018-12-21T00:50:54.190Z,9.90
2018-12-21T00:51:54.186Z,9.60
2018-12-21T00:52:54.185Z,9.80
2018-12-21T00:53:54.167Z,9.10
2018-12-21T00:54:54.165Z,10.20
2018-12-21T00:55:54.153Z,10.40
2018-12-21T00:56:54.254Z,10.10
2018-12-21T00:57:54.176Z,11.50
2018-12-21T00:58:54.112Z,11.00
2018-12-21T00:59:54.107Z,9.40
2018-12-21T01:00:54.083Z,9.70
2018-12-21T01:01:54.078Z,10.50
2018-12-21T01:02:54.058Z,10.10
2018-12-21T01:03:54.422Z,9.40
2018-12-21T01:04:54.050Z,9.80
2018-12-21T01:05:54.034Z,11.50
2018-12-21T01:06:54.031Z,9.80
2018-12-21T01:07:54.009Z,9.90
2018-12-21T01:08:54.033Z,9.90
2018-12-21T01:09:53.982Z,10.20
2018-12-21T01:10:53.985Z,9.50
2018-12-21T01:11:53.997Z,9.20
2018-12-21T01:12:53.954Z,10.70
2018-12-21T01:13:53.960Z,11.20
2018-12-21T01:14:53.940Z,9.60
2018-12-21T01:15:53.954Z,9.70
2018-12-21T01:16:53.920Z,10.00
2018-12-21T01:17:53.905Z,10.20
2018-12-21T01:18:53.894Z,9.70
2018-12-21T01:19:53.887Z,8.90
2018-12-21T01:20:53.874Z,10.70
2018-12-21T01:21:53.866Z,8.90
2018-12-21T01:22:53.854Z,9.00
2018-12-21T01:23:53.848Z,9.70
2018-12-21T01:24:53.822Z,9.20
2018-12-21T01:25:53.831Z,9.10
2018-12-21T01:26:53.806Z,9.40
2018-12-21T01:27:53.799Z,8.50
2018-12-21T01:28:53.944Z,8.50
2018-12-21T01:29:53.777Z,8.20
2018-12-21T01:30:53.757Z,8.00
2018-12-21T01:31:53.755Z,7.90
2018-12-21T01:32:53.754Z,8.10
2018-12-21T01:33:53.722Z,9.10
2018-12-21T01:34:53.751Z,8.30
2018-12-21T01:35:53.712Z,7.80
2018-12-21T01:36:53.696Z,8.00
2018-12-21T01:37:53.682Z,8.40
2018-12-21T01:38:53.679Z,7.60
2018-12-21T01:39:53.674Z,8.60
2018-12-21T01:40:53.676Z,8.00
2018-12-21T01:41:53.651Z,8.00
2018-12-21T01:42:53.632Z,8.40
2018-12-21T01:43:53.629Z,8.40
2018-12-21T01:44:53.603Z,7.90
2018-12-21T01:45:53.616Z,7.80
2018-12-21T01:46:53.610Z,8.30
2018-12-21T01:47:53.584Z,8.60
2018-12-21T01:48:53.570Z,7.50
2018-12-21T01:49:53.571Z,7.60
2018-12-21T01:50:53.593Z,7.20
2018-12-21T01:51:53.528Z,7.50
2018-12-21T01:52:53.547Z,7.30
2018-12-21T01:53:53.522Z,7.20
2018-12-21T01:54:53.501Z,7.10
2018-12-21T01:55:53.558Z,7.70
2018-12-21T01:56:54.405Z,7.70
2018-12-21T01:57:53.469Z,7.60
2018-12-21T01:58:53.458Z,7.10
2018-12-21T01:59:53.452Z,7.20
2018-12-21T02:00:53.447Z,7.70
2018-12-21T02:01:53.435Z,6.70
2018-12-21T02:02:53.441Z,7.40
2018-12-21T02:03:53.400Z,6.70
2018-12-21T02:04:53.395Z,7.60
2018-12-21T02:05:53.381Z,6.90
2018-12-21T02:06:53.376Z,6.60
2018-12-21T02:07:53.378Z,7.30
2018-12-21T02:08:53.353Z,7.30
2018-12-21T02:09:53.345Z,7.00
2018-12-21T02:10:53.339Z,6.70
2018-12-21T02:11:53.314Z,6.50
2018-12-21T02:12:53.332Z,6.10
2018-12-21T02:13:53.328Z,7.00
2018-12-21T02:14:53.296Z,6.80
2018-12-21T02:15:53.270Z,6.50
2018-12-21T02:16:53.273Z,6.40
2018-12-21T02:17:53.258Z,6.80
2018-12-21T02:18:53.242Z,5.60
2018-12-21T02:19:53.247Z,6.40
2018-12-21T02:20:53.219Z,6.10
2018-12-21T02:21:56.039Z,6.30
2018-12-21T02:22:53.195Z,5.40
2018-12-21T02:23:53.209Z,5.50
2018-12-21T02:24:53.187Z,6.40
2018-12-21T02:25:53.170Z,6.00
2018-12-21T02:26:53.161Z,6.00
2018-12-21T02:27:53.143Z,5.50
2018-12-21T02:28:53.139Z,5.70
2018-12-21T02:29:53.164Z,6.50
2018-12-21T02:30:53.127Z,5.80
2018-12-21T02:31:53.104Z,6.40
2018-12-21T02:32:53.090Z,6.60
2018-12-21T02:33:53.086Z,5.70
2018-12-21T02:34:53.075Z,6.50
2018-12-21T02:35:53.092Z,6.00
2018-12-21T02:36:53.041Z,6.20
2018-12-21T02:37:53.033Z,5.60
2018-12-21T02:38:53.028Z,7.90
2018-12-21T02:39:53.026Z,5.70
2018-12-21T02:40:53.002Z,5.20
2018-12-21T02:41:53.018Z,5.70
2018-12-21T02:42:53.004Z,6.60
2018-12-21T02:43:53.926Z,4.90
2018-12-21T02:44:53.018Z,5.90
2018-12-21T02:45:53.037Z,5.30
2018-12-21T02:46:53.080Z,6.80
2018-12-21T02:47:52.941Z,5.30
2018-12-21T02:48:52.927Z,6.60
2018-12-21T02:49:52.903Z,5.90
2018-12-21T02:50:52.904Z,7.30
2018-12-21T02:51:52.893Z,5.80
2018-12-21T02:52:52.886Z,5.30
2018-12-21T02:53:52.875Z,6.20
2018-12-21T02:54:52.849Z,6.60
2018-12-21T02:55:52.843Z,5.70
2018-12-21T02:56:52.950Z,5.80
2018-12-21T02:57:52.845Z,6.50
2018-12-21T02:58:52.816Z,6.70
2018-12-21T02:59:52.791Z,7.60
2018-12-21T03:00:52.789Z,5.00
2018-12-21T03:01:52.768Z,5.40
2018-12-21T03:02:52.799Z,7.30
2018-12-21T03:03:52.759Z,5.60
2018-12-21T03:04:52.745Z,6.00
2018-12-21T03:05:52.729Z,5.30
2018-12-21T03:06:52.736Z,5.70
2018-12-21T03:07:52.730Z,6.10
2018-12-21T03:08:52.730Z,6.20
2018-12-21T03:09:52.693Z,6.40
2018-12-21T03:10:52.676Z,6.10
2018-12-21T03:11:52.671Z,5.60
2018-12-21T03:12:52.660Z,4.80
2018-12-21T03:13:52.650Z,5.10
2018-12-21T03:14:52.652Z,5.20
2018-12-21T03:15:52.622Z,5.80
2018-12-21T03:16:52.615Z,5.40
2018-12-21T03:17:52.619Z,5.80
2018-12-21T03:18:52.592Z,7.40
2018-12-21T03:19:52.579Z,6.40
2018-12-21T03:20:52.603Z,7.20
2018-12-21T03:21:52.550Z,6.40
2018-12-21T03:22:52.598Z,7.40
2018-12-21T03:23:52.552Z,6.70
2018-12-21T03:24:52.528Z,8.40
2018-12-21T03:25:52.548Z,11.00
2018-12-21T03:26:52.502Z,8.40
2018-12-21T03:27:52.484Z,8.40
2018-12-21T03:28:52.488Z,10.00
2018-12-21T03:29:52.471Z,8.70
2018-12-21T03:30:52.449Z,8.90
2018-12-21T03:31:52.960Z,7.80
2018-12-21T03:32:52.448Z,12.30
2018-12-21T03:33:52.421Z,8.20
2018-12-21T03:34:52.420Z,9.10
2018-12-21T03:35:52.441Z,8.90
2018-12-21T03:36:52.396Z,8.20
2018-12-21T03:37:52.374Z,9.90
2018-12-21T03:38:52.384Z,9.60
2018-12-21T03:39:52.354Z,10.80
2018-12-21T03:40:52.345Z,8.70
2018-12-21T03:41:52.380Z,11.50
2018-12-21T03:42:52.332Z,10.40
2018-12-21T03:43:52.313Z,10.70
2018-12-21T03:44:52.293Z,10.20
2018-12-21T03:45:52.284Z,10.70
2018-12-21T03:46:52.285Z,9.50
2018-12-21T03:47:52.295Z,11.30
2018-12-21T03:48:52.261Z,11.20
2018-12-21T03:49:52.247Z,12.20
2018-12-21T03:50:52.235Z,11.30
2018-12-21T03:51:52.215Z,10.30
2018-12-21T03:52:52.263Z,11.20
2018-12-21T03:53:52.206Z,10.40
2018-12-21T03:54:52.193Z,10.90
2018-12-21T03:55:52.218Z,8.60
2018-12-21T03:56:52.161Z,11.80
2018-12-21T03:57:52.152Z,13.10
2018-12-21T03:59:00.967Z,9.80
2018-12-21T03:59:52.132Z,11.00
2018-12-21T04:00:52.127Z,11.10
2018-12-21T04:01:52.107Z,12.40
2018-12-21T04:02:52.102Z,10.70
2018-12-21T04:03:52.105Z,9.20
2018-12-21T04:04:52.097Z,10.90
2018-12-21T04:05:52.095Z,12.30
2018-12-21T04:06:52.072Z,10.60
2018-12-21T04:07:52.055Z,11.30
2018-12-21T04:08:52.084Z,11.20
2018-12-21T04:09:52.021Z,10.70
2018-12-21T04:10:52.022Z,12.00
2018-12-21T04:11:52.011Z,12.00
2018-12-21T04:12:51.987Z,13.30
2018-12-21T04:13:52.014Z,10.40
2018-12-21T04:14:51.998Z,12.10
2018-12-21T04:15:52.091Z,9.30
2018-12-21T04:16:51.946Z,12.00
2018-12-21T04:17:51.948Z,12.50
2018-12-21T04:18:51.939Z,9.90
2018-12-21T04:19:51.917Z,11.30
2018-12-21T04:20:51.901Z,9.30
2018-12-21T04:21:51.908Z,10.90
2018-12-21T04:22:51.893Z,12.50
2018-12-21T04:23:51.924Z,10.40
2018-12-21T04:24:51.867Z,12.50
2018-12-21T04:25:51.859Z,11.90
2018-12-21T04:26:51.850Z,11.60
2018-12-21T04:27:51.833Z,11.70
2018-12-21T04:28:51.823Z,15.60
2018-12-21T04:29:51.907Z,14.00
2018-12-21T04:30:51.792Z,13.90
2018-12-21T04:31:51.785Z,13.00
2018-12-21T04:32:51.780Z,10.50
2018-12-21T04:33:51.773Z,11.10
2018-12-21T04:34:51.749Z,15.10
2018-12-21T04:35:51.774Z,13.00
2018-12-21T04:36:51.801Z,11.60
2018-12-21T04:37:51.721Z,13.50
2018-12-21T04:38:51.718Z,13.80
2018-12-21T04:39:51.715Z,12.80
2018-12-21T04:40:51.717Z,14.90
2018-12-21T04:41:51.683Z,15.80
2018-12-21T04:42:51.664Z,14.70
2018-12-21T04:43:51.666Z,14.80
2018-12-21T04:44:51.654Z,15.20
2018-12-21T04:45:51.641Z,13.60
2018-12-21T04:46:51.659Z,14.10
2018-12-21T04:47:51.614Z,13.90
2018-12-21T04:48:51.608Z,14.50
2018-12-21T04:49:51.591Z,16.00
2018-12-21T04:50:51.580Z,15.50
2018-12-21T04:51:51.561Z,13.00
2018-12-21T04:52:51.577Z,15.50
2018-12-21T04:53:51.563Z,14.90
2018-12-21T04:54:51.531Z,16.70
2018-12-21T04:55:51.531Z,15.30
2018-12-21T04:56:51.515Z,11.40
2018-12-21T04:57:51.498Z,13.40
2018-12-21T04:58:51.515Z,14.80
2018-12-21T04:59:51.485Z,15.70
2018-12-21T05:00:51.462Z,13.10
2018-12-21T05:01:51.457Z,17.40
2018-12-21T05:02:51.446Z,17.10
2018-12-21T05:03:51.460Z,15.30
2018-12-21T05:04:51.437Z,15.70
2018-12-21T05:05:51.410Z,17.80
2018-12-21T05:06:51.394Z,14.00
2018-12-21T05:07:51.403Z,14.60
2018-12-21T05:08:51.413Z,15.10
2018-12-21T05:09:51.372Z,15.90
2018-12-21T05:10:51.364Z,15.20
2018-12-21T05:11:51.357Z,15.00
2018-12-21T05:12:51.342Z,13.80
2018-12-21T05:13:51.335Z,13.40
2018-12-21T05:14:51.346Z,13.20
2018-12-21T05:15:51.309Z,14.80
2018-12-21T05:16:51.284Z,16.10
2018-12-21T05:17:51.286Z,13.70
2018-12-21T05:18:51.292Z,14.20
2018-12-21T05:19:51.301Z,14.80
2018-12-21T05:20:51.247Z,16.00
2018-12-21T05:21:51.246Z,17.70
2018-12-21T05:22:52.377Z,15.30
2018-12-21T05:23:51.222Z,14.90
2018-12-21T05:24:51.196Z,15.10
2018-12-21T05:25:51.218Z,19.30
2018-12-21T05:26:51.189Z,15.00
2018-12-21T05:27:51.183Z,14.40
2018-12-21T05:28:51.152Z,17.60
2018-12-21T05:29:51.152Z,14.60
2018-12-21T05:30:51.192Z,12.60
2018-12-21T05:31:51.120Z,12.60
2018-12-21T05:32:51.120Z,15.00
2018-12-21T05:33:51.104Z,14.10
2018-12-21T05:34:51.094Z,14.90
2018-12-21T05:35:51.090Z,12.90
2018-12-21T05:36:51.101Z,13.70
2018-12-21T05:37:51.067Z,14.70
2018-12-21T05:38:51.052Z,15.70
2018-12-21T05:39:51.045Z,12.50
2018-12-21T05:40:51.021Z,15.40
2018-12-21T05:41:51.016Z,13.90
2018-12-21T05:42:51.011Z,14.70
2018-12-21T05:43:51.013Z,15.10
2018-12-21T05:44:50.987Z,17.20
2018-12-21T05:45:50.969Z,15.80
2018-12-21T05:46:50.958Z,14.70
2018-12-21T05:47:50.960Z,10.70
2018-12-21T05:48:50.930Z,15.40
2018-12-21T05:49:50.930Z,14.90
2018-12-21T05:50:50.924Z,17.30
2018-12-21T05:51:50.922Z,12.80
2018-12-21T05:52:50.900Z,15.90
2018-12-21T05:53:50.904Z,15.00
2018-12-21T05:54:50.868Z,17.00
2018-12-21T05:55:50.868Z,14.60
2018-12-21T05:56:50.849Z,13.50
2018-12-21T05:57:50.836Z,14.20
2018-12-21T05:58:50.837Z,14.00
2018-12-21T05:59:50.809Z,19.10
2018-12-21T06:00:50.817Z,16.90
2018-12-21T06:01:50.792Z,15.80
2018-12-21T06:02:50.798Z,14.00
2018-12-21T06:03:50.779Z,13.80
2018-12-21T06:04:50.760Z,16.60
2018-12-21T06:05:50.757Z,18.50
2018-12-21T06:06:50.732Z,13.10
2018-12-21T06:07:50.730Z,14.40
2018-12-21T06:08:50.749Z,14.20
2018-12-21T06:09:50.709Z,18.40
2018-12-21T06:10:50.692Z,12.60
2018-12-21T06:11:50.691Z,16.30
2018-12-21T06:12:50.682Z,17.60
2018-12-21T06:13:50.666Z,13.20
2018-12-21T06:14:50.657Z,14.40
2018-12-21T06:15:50.641Z,16.20
2018-12-21T06:16:50.631Z,15.20
2018-12-21T06:17:50.619Z,14.70
2018-12-21T06:18:50.614Z,13.50
2018-12-21T06:19:50.603Z,19.40
2018-12-21T06:20:50.585Z,16.70
2018-12-21T06:21:50.570Z,14.60
2018-12-21T06:22:50.572Z,14.00
2018-12-21T06:23:50.549Z,13.10
2018-12-21T06:24:50.547Z,13.30
2018-12-21T06:25:50.530Z,15.60
2018-12-21T06:26:50.514Z,14.50
2018-12-21T06:27:50.510Z,14.80
2018-12-21T06:28:50.516Z,13.80
2018-12-21T06:29:50.487Z,18.60
2018-12-21T06:30:50.466Z,16.30
2018-12-21T06:31:50.462Z,20.10
2018-12-21T06:32:50.443Z,18.30
2018-12-21T06:33:50.432Z,14.30
2018-12-21T06:34:50.431Z,12.50
2018-12-21T06:35:50.411Z,15.80
2018-12-21T06:36:50.400Z,16.60
2018-12-21T06:37:50.400Z,12.50
2018-12-21T06:38:50.392Z,17.90
2018-12-21T06:39:50.385Z,13.40
2018-12-21T06:40:50.360Z,17.90
2018-12-21T06:41:50.375Z,19.20
2018-12-21T06:42:50.832Z,18.60
2018-12-21T06:43:50.327Z,14.90
2018-12-21T06:44:50.311Z,18.10
2018-12-21T06:45:50.312Z,16.00
2018-12-21T06:46:50.318Z,17.30
2018-12-21T06:47:50.282Z,16.80
2018-12-21T06:48:50.278Z,16.20
2018-12-21T06:49:50.266Z,19.60
2018-12-21T06:50:50.267Z,15.10
2018-12-21T06:51:50.259Z,18.50
2018-12-21T06:52:50.228Z,15.20
2018-12-21T06:53:50.211Z,18.20
2018-12-21T06:54:50.217Z,16.80
2018-12-21T06:55:50.199Z,20.80
2018-12-21T06:56:50.193Z,16.70
2018-12-21T06:57:50.171Z,15.20
2018-12-21T06:58:50.162Z,13.50
2018-12-21T06:59:50.151Z,16.00
2018-12-21T07:00:50.149Z,16.70
2018-12-21T07:01:50.150Z,19.90
2018-12-21T07:02:50.123Z,16.30
2018-12-21T07:03:50.105Z,16.60
2018-12-21T07:04:50.121Z,13.20
2018-12-21T07:05:50.089Z,13.70
2018-12-21T07:06:50.077Z,14.90
2018-12-21T07:07:50.095Z,13.30
2018-12-21T07:08:50.046Z,16.90
2018-12-21T07:09:50.045Z,15.20
2018-12-21T07:10:50.034Z,15.40
2018-12-21T07:11:50.025Z,22.60
2018-12-21T07:12:50.020Z,15.10
2018-12-21T07:13:50.013Z,13.10
2018-12-21T07:14:49.992Z,10.30
2018-12-21T07:15:49.978Z,13.70
2018-12-21T07:16:49.990Z,14.00
2018-12-21T07:17:49.952Z,11.30
2018-12-21T07:18:49.946Z,12.50
2018-12-21T07:19:49.940Z,14.30
2018-12-21T07:20:49.935Z,14.00
2018-12-21T07:21:49.904Z,13.00
2018-12-21T07:22:49.902Z,11.10
2018-12-21T07:23:49.896Z,11.60
2018-12-21T07:24:49.879Z,10.50
2018-12-21T07:25:49.868Z,11.50
2018-12-21T07:26:49.880Z,13.30
2018-12-21T07:27:49.851Z,15.40
2018-12-21T07:28:49.845Z,14.90
2018-12-21T07:29:49.829Z,13.80
2018-12-21T07:30:49.818Z,12.50
2018-12-21T07:31:49.797Z,10.40
2018-12-21T07:32:49.798Z,13.60
2018-12-21T07:33:49.785Z,12.80
2018-12-21T07:34:49.785Z,13.10
2018-12-21T07:35:49.773Z,13.10
2018-12-21T07:36:49.766Z,14.60
2018-12-21T07:37:49.744Z,12.50
2018-12-21T07:38:49.723Z,13.60
2018-12-21T07:39:49.702Z,12.40
2018-12-21T07:40:49.702Z,12.50
2018-12-21T07:41:49.701Z,12.70
2018-12-21T07:42:49.714Z,13.00
2018-12-21T07:43:49.679Z,11.00
2018-12-21T07:44:49.650Z,13.50
2018-12-21T07:45:49.653Z,11.30
2018-12-21T07:46:49.732Z,9.50
2018-12-21T07:47:49.614Z,14.40
2018-12-21T07:48:49.632Z,12.20
2018-12-21T07:49:49.592Z,13.70
2018-12-21T07:50:49.593Z,10.40
2018-12-21T07:51:49.589Z,10.50
2018-12-21T07:52:49.568Z,13.00
2018-12-21T07:53:49.590Z,13.00
2018-12-21T07:54:49.543Z,10.70
2018-12-21T07:55:49.539Z,8.20
2018-12-21T07:56:49.536Z,11.20
2018-12-21T07:57:49.518Z,9.10
2018-12-21T07:58:56.912Z,8.40
2018-12-21T07:59:50.498Z,7.30
2018-12-21T08:00:49.476Z,8.90
2018-12-21T08:01:49.475Z,10.30
2018-12-21T08:02:49.478Z,8.80
2018-12-21T08:03:49.440Z,8.00
2018-12-21T08:04:49.444Z,9.50
2018-12-21T08:05:49.425Z,9.00
2018-12-21T08:06:49.416Z,10.20
2018-12-21T08:07:49.401Z,8.50
2018-12-21T08:08:49.436Z,10.70
2018-12-21T08:09:49.386Z,11.10
2018-12-21T08:10:49.381Z,12.90
2018-12-21T08:11:49.382Z,14.60
2018-12-21T08:12:49.346Z,11.50
2018-12-21T08:13:49.337Z,10.80
2018-12-21T08:14:49.341Z,11.70
2018-12-21T08:15:49.320Z,7.60
2018-12-21T08:16:49.325Z,8.80
2018-12-21T08:17:49.288Z,10.80
2018-12-21T08:18:49.304Z,9.20
2018-12-21T08:19:49.270Z,7.80
2018-12-21T08:20:49.264Z,9.80
2018-12-21T08:21:49.251Z,8.50
2018-12-21T08:22:49.250Z,10.80
2018-12-21T08:23:49.237Z,7.50
2018-12-21T08:24:49.205Z,9.10
2018-12-21T08:25:49.240Z,7.20
2018-12-21T08:26:49.184Z,8.50
2018-12-21T08:27:49.189Z,8.70
2018-12-21T08:28:49.160Z,8.00
2018-12-21T08:29:49.156Z,11.20
2018-12-21T08:30:49.148Z,7.70
2018-12-21T08:31:49.163Z,7.70
2018-12-21T08:32:49.121Z,7.70
2018-12-21T08:33:49.113Z,7.90
2018-12-21T08:34:49.100Z,8.10
2018-12-21T08:35:49.104Z,7.20
2018-12-21T08:36:49.088Z,7.50
2018-12-21T08:37:49.060Z,12.10
2018-12-21T08:38:49.068Z,8.10
2018-12-21T08:39:49.053Z,8.80
2018-12-21T08:40:49.064Z,8.60
2018-12-21T08:41:49.073Z,8.60
2018-12-21T08:42:49.014Z,10.90
2018-12-21T08:43:49.023Z,6.60
2018-12-21T08:44:49.002Z,9.30
2018-12-21T08:45:48.992Z,6.70
2018-12-21T08:46:48.973Z,9.20
2018-12-21T08:47:48.957Z,8.40
2018-12-21T08:48:48.939Z,5.50
2018-12-21T08:49:48.945Z,6.60
2018-12-21T08:50:48.926Z,7.60
2018-12-21T08:51:48.934Z,6.90
2018-12-21T08:52:48.913Z,8.40
2018-12-21T08:53:52.535Z,8.30
2018-12-21T08:54:48.885Z,6.80
2018-12-21T08:55:48.863Z,8.60
2018-12-21T08:56:48.870Z,15.40
2018-12-21T08:57:48.858Z,13.70
2018-12-21T08:58:48.842Z,12.10
2018-12-21T08:59:48.832Z,12.30
2018-12-21T09:00:48.817Z,8.50
2018-12-21T09:01:48.804Z,9.40
2018-12-21T09:02:48.800Z,8.40
2018-12-21T09:03:48.816Z,8.50
2018-12-21T09:04:48.773Z,8.00
2018-12-21T09:05:48.753Z,6.70
2018-12-21T09:06:48.761Z,9.30
2018-12-21T09:07:48.737Z,7.60
2018-12-21T09:08:48.735Z,7.40
2018-12-21T09:09:48.743Z,7.70
2018-12-21T09:10:48.727Z,6.20
2018-12-21T09:11:48.687Z,8.70
2018-12-21T09:12:48.692Z,6.00
2018-12-21T09:13:48.683Z,6.70
2018-12-21T09:14:48.666Z,7.50
2018-12-21T09:15:48.663Z,5.70
2018-12-21T09:16:48.632Z,7.70
2018-12-21T09:17:48.631Z,7.50
2018-12-21T09:18:48.620Z,6.00
2018-12-21T09:19:48.673Z,7.00
2018-12-21T09:20:48.634Z,11.10
2018-12-21T09:21:48.679Z,16.90
2018-12-21T09:22:48.573Z,6.70
2018-12-21T09:23:48.556Z,6.40
2018-12-21T09:24:48.559Z,6.60
2018-12-21T09:25:48.535Z,7.10
2018-12-21T09:26:48.643Z,7.20
2018-12-21T09:27:48.522Z,6.70
2018-12-21T09:28:48.515Z,7.20
2018-12-21T09:29:48.569Z,5.70
2018-12-21T09:30:48.506Z,6.20
2018-12-21T09:31:48.476Z,7.10
2018-12-21T09:32:48.463Z,6.20
2018-12-21T09:33:48.451Z,7.70
2018-12-21T09:34:48.434Z,5.70
2018-12-21T09:35:48.432Z,8.10
2018-12-21T09:36:48.434Z,6.30
2018-12-21T09:37:48.414Z,6.20
2018-12-21T09:38:49.139Z,8.00
2018-12-21T09:39:48.385Z,6.80
2018-12-21T09:40:48.386Z,7.70
2018-12-21T09:41:48.411Z,7.00
2018-12-21T09:42:48.368Z,8.00
2018-12-21T09:43:48.351Z,7.60
2018-12-21T09:44:52.513Z,4.20
2018-12-21T09:45:48.320Z,6.20
2018-12-21T09:46:48.324Z,6.60
2018-12-21T09:47:48.313Z,5.20
2018-12-21T09:48:48.298Z,5.60
2018-12-21T09:49:48.287Z,5.70
2018-12-21T09:50:48.260Z,5.00
2018-12-21T09:51:48.255Z,4.50
2018-12-21T09:52:48.283Z,4.10
2018-12-21T09:53:48.241Z,5.70
2018-12-21T09:54:48.232Z,7.20
2018-12-21T09:55:48.211Z,4.40
2018-12-21T09:56:48.195Z,4.00
2018-12-21T09:57:48.261Z,5.40
2018-12-21T09:58:48.189Z,5.40
2018-12-21T09:59:48.162Z,3.70
2018-12-21T10:00:48.165Z,6.50
2018-12-21T10:01:48.147Z,6.60
2018-12-21T10:02:48.143Z,5.70
2018-12-21T10:03:48.129Z,6.90
2018-12-21T10:04:48.117Z,7.30
2018-12-21T10:05:48.109Z,6.10
2018-12-21T10:06:48.087Z,6.60
2018-12-21T10:07:48.088Z,6.70
2018-12-21T10:08:48.072Z,3.90
2018-12-21T10:09:48.124Z,5.70
2018-12-21T10:10:48.076Z,4.80
2018-12-21T10:11:48.058Z,4.90
2018-12-21T10:12:48.034Z,4.90
2018-12-21T10:13:48.014Z,5.90
2018-12-21T10:14:48.009Z,6.60
2018-12-21T10:15:48.017Z,5.50
2018-12-21T10:16:47.994Z,5.70
2018-12-21T10:17:47.976Z,4.80
2018-12-21T10:18:47.960Z,4.40
2018-12-21T10:19:47.959Z,6.00
2018-12-21T10:20:47.985Z,5.90
2018-12-21T10:21:55.512Z,7.10
2018-12-21T10:22:47.930Z,5.70
2018-12-21T10:23:47.929Z,7.80
2018-12-21T10:24:47.906Z,3.90
2018-12-21T10:25:47.925Z,4.30
2018-12-21T10:26:47.910Z,3.10
2018-12-21T10:27:47.856Z,4.70
2018-12-21T10:28:47.856Z,4.50
2018-12-21T10:29:47.851Z,5.30
2018-12-21T10:30:47.836Z,5.20
2018-12-21T10:31:48.104Z,4.20
2018-12-21T10:32:47.849Z,5.90
2018-12-21T10:33:47.801Z,5.80
2018-12-21T10:34:47.842Z,5.70
2018-12-21T10:35:47.839Z,3.70
2018-12-21T10:36:47.809Z,4.80
2018-12-21T10:37:47.865Z,7.00
2018-12-21T10:38:47.756Z,6.70
2018-12-21T10:39:47.761Z,7.10
2018-12-21T10:40:47.763Z,4.40
2018-12-21T10:41:47.711Z,5.60
2018-12-21T10:42:47.703Z,4.90
2018-12-21T10:43:47.701Z,5.20
2018-12-21T10:44:47.686Z,4.40
2018-12-21T10:45:47.677Z,5.60
2018-12-21T10:46:47.659Z,6.60
2018-12-21T10:47:47.651Z,7.60
2018-12-21T10:48:48.049Z,5.60
2018-12-21T10:49:47.623Z,4.00
2018-12-21T10:50:48.519Z,4.70
2018-12-21T10:51:47.630Z,5.10
2018-12-21T10:52:47.606Z,5.70
2018-12-21T10:53:47.603Z,7.10
2018-12-21T10:54:47.581Z,4.80
2018-12-21T10:55:47.590Z,4.60
2018-12-21T10:56:47.649Z,4.60
2018-12-21T10:57:47.539Z,6.80
2018-12-21T10:58:47.562Z,5.10
2018-12-21T10:59:47.538Z,5.70
2018-12-21T11:00:47.515Z,5.00
2018-12-21T11:01:47.499Z,3.50
2018-12-21T11:02:47.485Z,4.10
2018-12-21T11:03:47.475Z,3.80
2018-12-21T11:04:47.480Z,3.20
2018-12-21T11:05:47.460Z,7.20
2018-12-21T11:06:47.441Z,4.10
2018-12-21T11:07:47.434Z,4.20
2018-12-21T11:08:47.415Z,4.20
2018-12-21T11:09:47.411Z,5.60
2018-12-21T11:10:47.417Z,4.20
2018-12-21T11:11:47.394Z,5.50
2018-12-21T11:12:47.371Z,5.10
2018-12-21T11:13:47.368Z,5.70
2018-12-21T11:14:47.354Z,4.40
2018-12-21T11:15:47.362Z,3.40
2018-12-21T11:16:47.354Z,6.40
2018-12-21T11:17:47.330Z,4.50
2018-12-21T11:18:47.309Z,3.00
2018-12-21T11:19:47.297Z,2.90
2018-12-21T11:20:47.301Z,3.50
2018-12-21T11:21:47.353Z,4.20
2018-12-21T11:22:47.259Z,3.60
2018-12-21T11:23:47.260Z,3.50
2018-12-21T11:24:47.280Z,5.10
2018-12-21T11:25:47.225Z,3.70
2018-12-21T11:26:47.231Z,9.40
2018-12-21T11:27:47.230Z,3.70
2018-12-21T11:28:47.201Z,7.70
2018-12-21T11:29:47.190Z,5.50
2018-12-21T11:30:47.187Z,6.00
2018-12-21T11:31:47.217Z,4.20
2018-12-21T11:32:47.158Z,5.40
2018-12-21T11:33:47.151Z,4.90
2018-12-21T11:34:47.150Z,6.20
2018-12-21T11:35:47.134Z,6.30
2018-12-21T11:36:47.187Z,5.70
2018-12-21T11:37:47.571Z,3.40
2018-12-21T11:38:47.095Z,3.70
2018-12-21T11:39:48.025Z,4.90
2018-12-21T11:40:48.025Z,6.50
2018-12-21T11:41:47.117Z,3.30
2018-12-21T11:42:47.049Z,5.70
2018-12-21T11:43:47.047Z,3.10
2018-12-21T11:44:47.036Z,3.90
2018-12-21T11:45:47.019Z,4.30
2018-12-21T11:46:47.014Z,5.20
2018-12-21T11:47:47.029Z,3.20
2018-12-21T11:48:47.027Z,5.70
2018-12-21T11:49:46.965Z,6.80
2018-12-21T11:50:46.959Z,4.40
2018-12-21T11:51:46.948Z,4.40
2018-12-21T11:52:46.952Z,3.50
2018-12-21T11:53:46.922Z,4.20
2018-12-21T11:54:47.061Z,4.40
2018-12-21T11:55:46.917Z,5.20
2018-12-21T11:56:46.936Z,5.70
2018-12-21T11:57:46.910Z,3.90
2018-12-21T11:58:46.917Z,4.10
2018-12-21T11:59:46.857Z,5.80
2018-12-21T12:00:46.877Z,5.60
2018-12-21T12:01:46.840Z,3.10
2018-12-21T12:02:46.842Z,5.20
2018-12-21T12:03:46.827Z,4.10
2018-12-21T12:04:46.846Z,4.30
2018-12-21T12:05:46.805Z,6.20
2018-12-21T12:06:46.786Z,4.70
2018-12-21T12:07:46.783Z,5.30
2018-12-21T12:08:46.773Z,4.70
2018-12-21T12:09:46.762Z,5.20
2018-12-21T12:10:46.826Z,5.30
2018-12-21T12:11:46.727Z,5.70
2018-12-21T12:12:46.724Z,3.90
2018-12-21T12:13:46.706Z,4.90
2018-12-21T12:14:46.695Z,4.20
2018-12-21T12:15:46.720Z,4.30
2018-12-21T12:16:46.675Z,5.40
2018-12-21T12:17:46.677Z,3.70
2018-12-21T12:18:46.651Z,3.60
2018-12-21T12:19:46.654Z,5.20
2018-12-21T12:20:46.633Z,5.60
2018-12-21T12:21:46.640Z,5.70
2018-12-21T12:22:46.615Z,5.20
2018-12-21T12:23:46.603Z,5.70
2018-12-21T12:24:52.685Z,4.30
2018-12-21T12:25:47.595Z,5.30
2018-12-21T12:26:46.577Z,4.50
2018-12-21T12:27:47.604Z,4.10
2018-12-21T12:28:47.050Z,4.00
2018-12-21T12:29:46.597Z,4.30
2018-12-21T12:30:46.550Z,4.10
2018-12-21T12:31:46.527Z,5.90
2018-12-21T12:32:46.513Z,7.30
2018-12-21T12:33:46.523Z,7.30
2018-12-21T12:34:46.481Z,5.30
2018-12-21T12:35:46.469Z,4.80
2018-12-21T12:36:46.478Z,4.60
2018-12-21T12:37:46.465Z,3.30
2018-12-21T12:38:46.457Z,4.80
2018-12-21T12:39:46.420Z,4.10
2018-12-21T12:40:46.487Z,4.30
2018-12-21T12:41:46.415Z,4.50
2018-12-21T12:42:46.449Z,4.80
2018-12-21T12:43:46.391Z,5.30
2018-12-21T12:44:46.376Z,5.40
2018-12-21T12:45:46.371Z,9.20
2018-12-21T12:46:46.424Z,5.40
2018-12-21T12:47:46.334Z,4.60
2018-12-21T12:48:46.399Z,5.00
2018-12-21T12:49:46.313Z,3.90
2018-12-21T12:50:46.317Z,3.80
2018-12-21T12:51:46.348Z,5.00
2018-12-21T12:52:46.283Z,5.00
2018-12-21T12:53:46.282Z,4.90
2018-12-21T12:54:46.259Z,6.00
2018-12-21T12:55:46.260Z,5.20
2018-12-21T12:56:46.265Z,6.30
2018-12-21T12:57:46.241Z,6.00
2018-12-21T12:58:46.214Z,5.50
2018-12-21T12:59:46.250Z,5.40
2018-12-21T13:00:46.204Z,5.40
2018-12-21T13:01:46.203Z,4.30
2018-12-21T13:02:46.186Z,5.00
2018-12-21T13:03:46.175Z,5.10
2018-12-21T13:04:46.159Z,7.10
2018-12-21T13:05:46.173Z,4.10
2018-12-21T13:06:46.131Z,6.40
2018-12-21T13:07:46.126Z,4.70
2018-12-21T13:08:46.114Z,4.70